sensor_id;sensor_type;location;lat;lon;timestamp;temperature;humidity
13616;DHT22;6879;51.368;6.782;2023-02-28T00:00:09;-2.30;99.90
13616;DHT22;6879;51.368;6.782;2023-02-28T00:02:39;-2.40;99.90
13616;DHT22;6879;51.368;6.782;2023-02-28T00:05:10;-2.50;99.90
13616;DHT22;6879;51.368;6.782;2023-02-28T00:07:39;-2.60;99.90
13616;DHT22;6879;51.368;6.782;2023-02-28T00:10:13;-2.60;99.90
13616;DHT22;6879;51.368;6.782;2023-02-28T00:12:42;-2.60;99.90
13616;DHT22;6879;51.368;6.782;2023-02-28T00:15:11;-2.70;99.90
13616;DHT22;6879;51.368;6.782;2023-02-28T00:17:40;-2.60;99.90
13616;DHT22;6879;51.368;6.782;2023-02-28T00:20:10;-2.20;99.90
13616;DHT22;6879;51.368;6.782;2023-02-28T00:22:42;-1.90;99.90
13616;DHT22;6879;51.368;6.782;2023-02-28T00:25:15;-2.00;99.90
13616;DHT22;6879;51.368;6.782;2023-02-28T00:27:45;-2.20;99.90
13616;DHT22;6879;51.368;6.782;2023-02-28T00:30:15;-2.40;99.90
13616;DHT22;6879;51.368;6.782;2023-02-28T00:32:44;-2.50;99.90
13616;DHT22;6879;51.368;6.782;2023-02-28T00:35:13;-2.50;99.90
13616;DHT22;6879;51.368;6.782;2023-02-28T00:37:43;-2.50;99.90
13616;DHT22;6879;51.368;6.782;2023-02-28T00:40:13;-2.50;99.90
13616;DHT22;6879;51.368;6.782;2023-02-28T00:42:42;-2.50;99.90
13616;DHT22;6879;51.368;6.782;2023-02-28T00:45:11;-2.40;99.90
13616;DHT22;6879;51.368;6.782;2023-02-28T00:47:40;-2.40;99.90
13616;DHT22;6879;51.368;6.782;2023-02-28T00:50:11;-2.50;99.90
13616;DHT22;6879;51.368;6.782;2023-02-28T00:52:40;-2.50;99.90
13616;DHT22;6879;51.368;6.782;2023-02-28T00:55:09;-2.60;99.90
13616;DHT22;6879;51.368;6.782;2023-02-28T00:57:40;-2.30;99.90
13616;DHT22;6879;51.368;6.782;2023-02-28T01:00:10;-2.10;99.90
13616;DHT22;6879;51.368;6.782;2023-02-28T01:02:39;-2.10;99.90
13616;DHT22;6879;51.368;6.782;2023-02-28T01:05:08;-2.10;99.90
13616;DHT22;6879;51.368;6.782;2023-02-28T01:07:37;-2.20;99.90
13616;DHT22;6879;51.368;6.782;2023-02-28T01:10:08;-2.20;99.90
13616;DHT22;6879;51.368;6.782;2023-02-28T01:12:37;-2.30;99.90
13616;DHT22;6879;51.368;6.782;2023-02-28T01:15:10;-1.80;99.90
13616;DHT22;6879;51.368;6.782;2023-02-28T01:17:39;-1.80;99.90
13616;DHT22;6879;51.368;6.782;2023-02-28T01:20:09;-1.90;99.90
13616;DHT22;6879;51.368;6.782;2023-02-28T01:22:38;-1.90;99.90
13616;DHT22;6879;51.368;6.782;2023-02-28T01:25:08;-2.00;99.90
13616;DHT22;6879;51.368;6.782;2023-02-28T01:27:37;-1.90;99.90
13616;DHT22;6879;51.368;6.782;2023-02-28T01:30:09;-1.90;99.90
13616;DHT22;6879;51.368;6.782;2023-02-28T01:32:40;-1.90;99.90
13616;DHT22;6879;51.368;6.782;2023-02-28T01:35:09;-1.80;99.90
13616;DHT22;6879;51.368;6.782;2023-02-28T01:37:41;-1.90;99.90
13616;DHT22;6879;51.368;6.782;2023-02-28T01:40:11;-1.90;99.90
13616;DHT22;6879;51.368;6.782;2023-02-28T01:42:40;-2.10;99.90
13616;DHT22;6879;51.368;6.782;2023-02-28T01:45:22;-2.00;99.90
13616;DHT22;6879;51.368;6.782;2023-02-28T01:47:58;-2.00;99.90
13616;DHT22;6879;51.368;6.782;2023-02-28T01:50:32;-2.10;99.90
13616;DHT22;6879;51.368;6.782;2023-02-28T01:53:06;-2.00;99.90
13616;DHT22;6879;51.368;6.782;2023-02-28T01:55:36;-2.10;99.90
13616;DHT22;6879;51.368;6.782;2023-02-28T01:58:07;-2.10;99.90
13616;DHT22;6879;51.368;6.782;2023-02-28T02:00:38;-1.90;99.90
13616;DHT22;6879;51.368;6.782;2023-02-28T02:03:13;-2.00;99.90
13616;DHT22;6879;51.368;6.782;2023-02-28T02:05:46;-2.30;99.90
13616;DHT22;6879;51.368;6.782;2023-02-28T02:08:25;-2.40;99.90
13616;DHT22;6879;51.368;6.782;2023-02-28T02:10:57;-2.40;99.90
13616;DHT22;6879;51.368;6.782;2023-02-28T02:13:52;-2.40;99.90
13616;DHT22;6879;51.368;6.782;2023-02-28T02:16:35;-2.70;99.90
13616;DHT22;6879;51.368;6.782;2023-02-28T02:19:20;-2.80;99.90
13616;DHT22;6879;51.368;6.782;2023-02-28T02:25:12;-2.90;99.90
13616;DHT22;6879;51.368;6.782;2023-02-28T02:31:13;-3.00;99.90
13616;DHT22;6879;51.368;6.782;2023-02-28T02:36:53;-3.30;99.90
13616;DHT22;6879;51.368;6.782;2023-02-28T02:39:31;-3.40;99.90
13616;DHT22;6879;51.368;6.782;2023-02-28T02:42:04;-3.50;99.90
13616;DHT22;6879;51.368;6.782;2023-02-28T02:44:40;-3.60;99.90
13616;DHT22;6879;51.368;6.782;2023-02-28T02:47:14;-3.60;99.90
13616;DHT22;6879;51.368;6.782;2023-02-28T02:49:47;-3.70;99.90
13616;DHT22;6879;51.368;6.782;2023-02-28T02:52:23;-3.70;99.90
13616;DHT22;6879;51.368;6.782;2023-02-28T02:54:54;-3.80;99.90
13616;DHT22;6879;51.368;6.782;2023-02-28T02:57:29;-3.80;99.90
13616;DHT22;6879;51.368;6.782;2023-02-28T03:00:02;-3.80;99.90
13616;DHT22;6879;51.368;6.782;2023-02-28T03:02:33;-3.80;99.90
13616;DHT22;6879;51.368;6.782;2023-02-28T03:05:08;-3.80;99.90
13616;DHT22;6879;51.368;6.782;2023-02-28T03:07:39;-3.70;99.90
13616;DHT22;6879;51.368;6.782;2023-02-28T03:10:30;-3.60;99.90
13616;DHT22;6879;51.368;6.782;2023-02-28T03:13:19;-3.80;99.90
13616;DHT22;6879;51.368;6.782;2023-02-28T03:16:02;-3.90;99.90
13616;DHT22;6879;51.368;6.782;2023-02-28T03:18:40;-3.90;99.90
13616;DHT22;6879;51.368;6.782;2023-02-28T03:21:16;-4.00;99.90
13616;DHT22;6879;51.368;6.782;2023-02-28T03:23:56;-4.00;99.90
13616;DHT22;6879;51.368;6.782;2023-02-28T03:26:29;-3.90;99.90
13616;DHT22;6879;51.368;6.782;2023-02-28T03:29:04;-3.90;99.90
13616;DHT22;6879;51.368;6.782;2023-02-28T03:31:37;-3.90;99.90
13616;DHT22;6879;51.368;6.782;2023-02-28T03:34:12;-4.00;99.90
13616;DHT22;6879;51.368;6.782;2023-02-28T03:36:46;-4.10;99.90
13616;DHT22;6879;51.368;6.782;2023-02-28T03:39:20;-4.20;99.90
13616;DHT22;6879;51.368;6.782;2023-02-28T03:41:53;-4.30;99.90
13616;DHT22;6879;51.368;6.782;2023-02-28T03:44:28;-4.40;99.90
13616;DHT22;6879;51.368;6.782;2023-02-28T03:47:03;-4.50;99.90
13616;DHT22;6879;51.368;6.782;2023-02-28T03:49:36;-4.30;99.90
13616;DHT22;6879;51.368;6.782;2023-02-28T03:52:08;-4.30;99.90
13616;DHT22;6879;51.368;6.782;2023-02-28T03:54:42;-4.30;99.90
13616;DHT22;6879;51.368;6.782;2023-02-28T03:57:17;-4.30;99.90
13616;DHT22;6879;51.368;6.782;2023-02-28T03:59:54;-4.20;99.90
13616;DHT22;6879;51.368;6.782;2023-02-28T04:02:24;-4.30;99.90
13616;DHT22;6879;51.368;6.782;2023-02-28T04:04:54;-4.30;99.90
13616;DHT22;6879;51.368;6.782;2023-02-28T04:07:22;-4.30;99.90
13616;DHT22;6879;51.368;6.782;2023-02-28T04:09:53;-4.30;99.90
13616;DHT22;6879;51.368;6.782;2023-02-28T04:12:22;-4.30;99.90
13616;DHT22;6879;51.368;6.782;2023-02-28T04:14:51;-4.20;99.90
13616;DHT22;6879;51.368;6.782;2023-02-28T04:17:20;-4.10;99.90
13616;DHT22;6879;51.368;6.782;2023-02-28T04:19:49;-4.00;99.90
13616;DHT22;6879;51.368;6.782;2023-02-28T04:22:18;-4.00;99.90
13616;DHT22;6879;51.368;6.782;2023-02-28T04:24:47;-4.10;99.90
13616;DHT22;6879;51.368;6.782;2023-02-28T04:27:17;-4.00;99.90
13616;DHT22;6879;51.368;6.782;2023-02-28T04:29:47;-4.00;99.90
13616;DHT22;6879;51.368;6.782;2023-02-28T04:32:16;-3.90;99.90
13616;DHT22;6879;51.368;6.782;2023-02-28T04:34:45;-3.90;99.90
13616;DHT22;6879;51.368;6.782;2023-02-28T04:37:17;-4.00;99.90
13616;DHT22;6879;51.368;6.782;2023-02-28T04:39:46;-4.10;99.90
13616;DHT22;6879;51.368;6.782;2023-02-28T04:42:15;-4.20;99.90
13616;DHT22;6879;51.368;6.782;2023-02-28T04:44:45;-4.20;99.90
13616;DHT22;6879;51.368;6.782;2023-02-28T04:47:14;-4.10;99.90
13616;DHT22;6879;51.368;6.782;2023-02-28T04:49:43;-4.10;99.90
13616;DHT22;6879;51.368;6.782;2023-02-28T04:52:12;-3.90;99.90
13616;DHT22;6879;51.368;6.782;2023-02-28T04:54:40;-3.90;99.90
13616;DHT22;6879;51.368;6.782;2023-02-28T04:57:10;-3.70;99.90
13616;DHT22;6879;51.368;6.782;2023-02-28T04:59:40;-3.70;99.90
13616;DHT22;6879;51.368;6.782;2023-02-28T05:02:10;-3.60;99.90
13616;DHT22;6879;51.368;6.782;2023-02-28T05:04:39;-3.70;99.90
13616;DHT22;6879;51.368;6.782;2023-02-28T05:07:08;-3.70;99.90
13616;DHT22;6879;51.368;6.782;2023-02-28T05:09:37;-3.70;99.90
13616;DHT22;6879;51.368;6.782;2023-02-28T05:12:07;-3.60;99.90
13616;DHT22;6879;51.368;6.782;2023-02-28T05:14:37;-3.60;99.90
13616;DHT22;6879;51.368;6.782;2023-02-28T05:17:11;-3.40;99.90
13616;DHT22;6879;51.368;6.782;2023-02-28T05:19:41;-3.50;99.90
13616;DHT22;6879;51.368;6.782;2023-02-28T05:22:14;-3.50;99.90
13616;DHT22;6879;51.368;6.782;2023-02-28T05:24:44;-3.60;99.90
13616;DHT22;6879;51.368;6.782;2023-02-28T05:27:13;-3.70;99.90
13616;DHT22;6879;51.368;6.782;2023-02-28T05:29:42;-3.80;99.90
13616;DHT22;6879;51.368;6.782;2023-02-28T05:32:14;-3.70;99.90
13616;DHT22;6879;51.368;6.782;2023-02-28T05:34:43;-3.60;99.90
13616;DHT22;6879;51.368;6.782;2023-02-28T05:37:13;-3.50;99.90
13616;DHT22;6879;51.368;6.782;2023-02-28T05:39:44;-3.50;99.90
13616;DHT22;6879;51.368;6.782;2023-02-28T05:42:13;-3.40;99.90
13616;DHT22;6879;51.368;6.782;2023-02-28T05:44:42;-3.50;99.90
13616;DHT22;6879;51.368;6.782;2023-02-28T05:47:14;-3.50;99.90
13616;DHT22;6879;51.368;6.782;2023-02-28T05:49:44;-3.50;99.90
13616;DHT22;6879;51.368;6.782;2023-02-28T05:52:14;-3.60;99.90
13616;DHT22;6879;51.368;6.782;2023-02-28T05:54:43;-3.60;99.90
13616;DHT22;6879;51.368;6.782;2023-02-28T05:57:12;-3.50;99.90
13616;DHT22;6879;51.368;6.782;2023-02-28T05:59:50;-3.60;99.90
13616;DHT22;6879;51.368;6.782;2023-02-28T06:02:21;-3.70;99.90
13616;DHT22;6879;51.368;6.782;2023-02-28T06:04:52;-3.70;99.90
13616;DHT22;6879;51.368;6.782;2023-02-28T06:07:21;-3.70;99.90
13616;DHT22;6879;51.368;6.782;2023-02-28T06:09:54;-3.80;99.90
13616;DHT22;6879;51.368;6.782;2023-02-28T06:12:27;-3.90;99.90
13616;DHT22;6879;51.368;6.782;2023-02-28T06:14:57;-3.90;99.90
13616;DHT22;6879;51.368;6.782;2023-02-28T06:17:32;-3.80;99.90
13616;DHT22;6879;51.368;6.782;2023-02-28T06:20:02;-3.70;99.90
13616;DHT22;6879;51.368;6.782;2023-02-28T06:22:31;-3.90;99.90
13616;DHT22;6879;51.368;6.782;2023-02-28T06:25:01;-3.80;99.90
13616;DHT22;6879;51.368;6.782;2023-02-28T06:27:31;-3.50;99.90
13616;DHT22;6879;51.368;6.782;2023-02-28T06:30:00;-3.30;99.90
13616;DHT22;6879;51.368;6.782;2023-02-28T06:32:31;-3.20;99.90
13616;DHT22;6879;51.368;6.782;2023-02-28T06:35:01;-3.40;99.90
13616;DHT22;6879;51.368;6.782;2023-02-28T06:37:32;-3.60;99.90
13616;DHT22;6879;51.368;6.782;2023-02-28T06:40:04;-3.80;99.90
13616;DHT22;6879;51.368;6.782;2023-02-28T06:42:35;-3.70;99.90
13616;DHT22;6879;51.368;6.782;2023-02-28T06:45:10;-3.50;99.90
13616;DHT22;6879;51.368;6.782;2023-02-28T06:47:52;-3.10;99.90
13616;DHT22;6879;51.368;6.782;2023-02-28T06:50:31;-3.00;99.90
13616;DHT22;6879;51.368;6.782;2023-02-28T06:53:08;-2.90;99.90
13616;DHT22;6879;51.368;6.782;2023-02-28T06:56:39;-2.90;99.90
13616;DHT22;6879;51.368;6.782;2023-02-28T07:00:05;-2.80;99.90
13616;DHT22;6879;51.368;6.782;2023-02-28T07:03:16;-2.60;99.90
13616;DHT22;6879;51.368;6.782;2023-02-28T07:05:52;-2.30;99.90
13616;DHT22;6879;51.368;6.782;2023-02-28T07:08:27;-2.30;99.90
13616;DHT22;6879;51.368;6.782;2023-02-28T07:11:03;-2.20;99.90
13616;DHT22;6879;51.368;6.782;2023-02-28T07:13:37;-2.20;99.90
13616;DHT22;6879;51.368;6.782;2023-02-28T07:16:13;-2.20;99.90
13616;DHT22;6879;51.368;6.782;2023-02-28T07:18:52;-2.00;99.90
13616;DHT22;6879;51.368;6.782;2023-02-28T07:21:26;-2.00;99.90
13616;DHT22;6879;51.368;6.782;2023-02-28T07:23:57;-2.00;99.90
13616;DHT22;6879;51.368;6.782;2023-02-28T07:26:40;-2.00;99.90
13616;DHT22;6879;51.368;6.782;2023-02-28T07:29:25;-2.00;99.90
13616;DHT22;6879;51.368;6.782;2023-02-28T07:32:02;-2.10;99.90
13616;DHT22;6879;51.368;6.782;2023-02-28T07:34:36;-1.80;99.90
13616;DHT22;6879;51.368;6.782;2023-02-28T07:37:19;-1.80;99.90
13616;DHT22;6879;51.368;6.782;2023-02-28T07:40:20;-1.80;99.90
13616;DHT22;6879;51.368;6.782;2023-02-28T07:43:06;-1.60;99.90
13616;DHT22;6879;51.368;6.782;2023-02-28T07:45:47;-1.60;99.90
13616;DHT22;6879;51.368;6.782;2023-02-28T07:48:26;-1.70;99.90
13616;DHT22;6879;51.368;6.782;2023-02-28T07:51:06;-1.60;99.90
13616;DHT22;6879;51.368;6.782;2023-02-28T07:54:01;-1.30;99.90
13616;DHT22;6879;51.368;6.782;2023-02-28T07:56:34;-1.10;99.90
13616;DHT22;6879;51.368;6.782;2023-02-28T07:59:07;-0.90;99.90
13616;DHT22;6879;51.368;6.782;2023-02-28T08:01:46;-0.90;99.90
13616;DHT22;6879;51.368;6.782;2023-02-28T08:04:19;-0.80;99.90
13616;DHT22;6879;51.368;6.782;2023-02-28T08:06:54;-0.80;99.90
13616;DHT22;6879;51.368;6.782;2023-02-28T08:09:30;-0.70;99.90
13616;DHT22;6879;51.368;6.782;2023-02-28T08:12:04;-0.40;99.90
13616;DHT22;6879;51.368;6.782;2023-02-28T08:14:34;-0.20;99.90
13616;DHT22;6879;51.368;6.782;2023-02-28T08:17:08;-0.20;99.90
13616;DHT22;6879;51.368;6.782;2023-02-28T08:19:40;0.00;99.90
13616;DHT22;6879;51.368;6.782;2023-02-28T08:22:14;0.10;99.90
13616;DHT22;6879;51.368;6.782;2023-02-28T08:24:49;0.30;99.40
13616;DHT22;6879;51.368;6.782;2023-02-28T08:27:19;0.50;98.40
13616;DHT22;6879;51.368;6.782;2023-02-28T08:29:51;0.70;97.50
13616;DHT22;6879;51.368;6.782;2023-02-28T08:32:21;0.80;96.40
13616;DHT22;6879;51.368;6.782;2023-02-28T08:34:56;0.90;96.50
13616;DHT22;6879;51.368;6.782;2023-02-28T08:37:28;0.90;96.40
13616;DHT22;6879;51.368;6.782;2023-02-28T08:40:01;0.90;95.90
13616;DHT22;6879;51.368;6.782;2023-02-28T08:42:32;1.30;95.00
13616;DHT22;6879;51.368;6.782;2023-02-28T08:45:02;1.50;93.10
13616;DHT22;6879;51.368;6.782;2023-02-28T08:47:31;1.50;91.80
13616;DHT22;6879;51.368;6.782;2023-02-28T08:50:01;1.60;91.70
13616;DHT22;6879;51.368;6.782;2023-02-28T08:52:36;1.50;92.00
13616;DHT22;6879;51.368;6.782;2023-02-28T08:55:09;1.60;91.70
13616;DHT22;6879;51.368;6.782;2023-02-28T08:57:41;1.80;90.90
13616;DHT22;6879;51.368;6.782;2023-02-28T09:00:12;1.90;90.40
13616;DHT22;6879;51.368;6.782;2023-02-28T09:02:45;1.90;90.10
13616;DHT22;6879;51.368;6.782;2023-02-28T09:05:18;2.00;89.90
13616;DHT22;6879;51.368;6.782;2023-02-28T09:07:51;2.10;89.50
13616;DHT22;6879;51.368;6.782;2023-02-28T09:10:21;2.10;89.20
13616;DHT22;6879;51.368;6.782;2023-02-28T09:12:53;2.20;89.20
13616;DHT22;6879;51.368;6.782;2023-02-28T09:15:29;2.20;89.60
13616;DHT22;6879;51.368;6.782;2023-02-28T09:18:08;2.20;88.70
13616;DHT22;6879;51.368;6.782;2023-02-28T09:20:39;2.30;87.80
13616;DHT22;6879;51.368;6.782;2023-02-28T09:23:11;2.40;87.70
13616;DHT22;6879;51.368;6.782;2023-02-28T09:25:50;2.50;87.20
13616;DHT22;6879;51.368;6.782;2023-02-28T09:28:24;2.60;86.20
13616;DHT22;6879;51.368;6.782;2023-02-28T09:30:58;2.70;85.70
13616;DHT22;6879;51.368;6.782;2023-02-28T09:33:30;2.80;85.70
13616;DHT22;6879;51.368;6.782;2023-02-28T09:36:05;3.00;84.20
13616;DHT22;6879;51.368;6.782;2023-02-28T09:38:43;3.10;83.80
13616;DHT22;6879;51.368;6.782;2023-02-28T09:41:22;3.20;82.60
13616;DHT22;6879;51.368;6.782;2023-02-28T09:43:57;3.10;82.10
13616;DHT22;6879;51.368;6.782;2023-02-28T09:46:33;3.20;82.00
13616;DHT22;6879;51.368;6.782;2023-02-28T09:49:12;3.40;81.80
13616;DHT22;6879;51.368;6.782;2023-02-28T09:51:51;3.60;81.50
13616;DHT22;6879;51.368;6.782;2023-02-28T09:54:29;3.60;81.50
13616;DHT22;6879;51.368;6.782;2023-02-28T09:57:04;3.50;81.20
13616;DHT22;6879;51.368;6.782;2023-02-28T09:59:42;3.50;80.90
13616;DHT22;6879;51.368;6.782;2023-02-28T10:02:29;3.50;80.80
13616;DHT22;6879;51.368;6.782;2023-02-28T10:05:11;3.50;81.10
13616;DHT22;6879;51.368;6.782;2023-02-28T10:07:55;3.50;79.80
13616;DHT22;6879;51.368;6.782;2023-02-28T10:10:38;3.70;80.30
13616;DHT22;6879;51.368;6.782;2023-02-28T10:13:22;3.80;79.70
13616;DHT22;6879;51.368;6.782;2023-02-28T10:15:55;3.80;79.30
13616;DHT22;6879;51.368;6.782;2023-02-28T10:18:27;3.80;79.20
13616;DHT22;6879;51.368;6.782;2023-02-28T10:20:59;4.00;78.90
13616;DHT22;6879;51.368;6.782;2023-02-28T10:23:34;4.20;78.90
13616;DHT22;6879;51.368;6.782;2023-02-28T10:26:12;4.40;78.20
13616;DHT22;6879;51.368;6.782;2023-02-28T10:28:43;4.60;77.90
13616;DHT22;6879;51.368;6.782;2023-02-28T10:31:17;4.70;77.00
13616;DHT22;6879;51.368;6.782;2023-02-28T10:33:48;5.00;76.40
13616;DHT22;6879;51.368;6.782;2023-02-28T10:36:23;5.30;75.60
13616;DHT22;6879;51.368;6.782;2023-02-28T10:38:53;5.40;74.50
13616;DHT22;6879;51.368;6.782;2023-02-28T10:41:31;5.50;73.90
13616;DHT22;6879;51.368;6.782;2023-02-28T10:44:17;5.40;73.90
13616;DHT22;6879;51.368;6.782;2023-02-28T10:46:49;5.40;73.70
13616;DHT22;6879;51.368;6.782;2023-02-28T10:49:21;5.70;73.40
13616;DHT22;6879;51.368;6.782;2023-02-28T10:51:53;5.90;72.70
13616;DHT22;6879;51.368;6.782;2023-02-28T10:54:28;6.40;71.90
13616;DHT22;6879;51.368;6.782;2023-02-28T10:57:20;7.20;71.30
13616;DHT22;6879;51.368;6.782;2023-02-28T10:59:51;7.50;69.20
13616;DHT22;6879;51.368;6.782;2023-02-28T11:02:33;7.80;68.80
13616;DHT22;6879;51.368;6.782;2023-02-28T11:05:27;8.00;67.80
13616;DHT22;6879;51.368;6.782;2023-02-28T11:08:04;8.30;67.20
13616;DHT22;6879;51.368;6.782;2023-02-28T11:10:36;8.90;66.50
13616;DHT22;6879;51.368;6.782;2023-02-28T11:13:17;9.30;64.90
13616;DHT22;6879;51.368;6.782;2023-02-28T11:15:51;9.40;65.00
13616;DHT22;6879;51.368;6.782;2023-02-28T11:18:30;9.10;64.50
13616;DHT22;6879;51.368;6.782;2023-02-28T11:21:01;9.20;63.80
13616;DHT22;6879;51.368;6.782;2023-02-28T11:23:32;9.40;63.70
13616;DHT22;6879;51.368;6.782;2023-02-28T11:26:04;8.90;63.70
13616;DHT22;6879;51.368;6.782;2023-02-28T11:28:39;9.20;64.40
13616;DHT22;6879;51.368;6.782;2023-02-28T11:31:16;9.50;63.20
13616;DHT22;6879;51.368;6.782;2023-02-28T11:33:48;9.50;64.10
13616;DHT22;6879;51.368;6.782;2023-02-28T11:36:21;9.60;63.30
13616;DHT22;6879;51.368;6.782;2023-02-28T11:38:56;9.50;63.30
13616;DHT22;6879;51.368;6.782;2023-02-28T11:41:49;9.30;63.40
13616;DHT22;6879;51.368;6.782;2023-02-28T11:44:39;9.40;63.80
13616;DHT22;6879;51.368;6.782;2023-02-28T11:47:17;10.20;63.30
13616;DHT22;6879;51.368;6.782;2023-02-28T11:49:54;11.00;61.60
13616;DHT22;6879;51.368;6.782;2023-02-28T11:52:34;11.70;60.60
13616;DHT22;6879;51.368;6.782;2023-02-28T11:55:14;11.70;60.10
13616;DHT22;6879;51.368;6.782;2023-02-28T11:58:13;11.40;60.00
13616;DHT22;6879;51.368;6.782;2023-02-28T12:01:00;11.80;59.50
13616;DHT22;6879;51.368;6.782;2023-02-28T12:03:39;11.40;59.20
13616;DHT22;6879;51.368;6.782;2023-02-28T12:06:21;12.30;59.60
13616;DHT22;6879;51.368;6.782;2023-02-28T12:09:02;11.80;58.70
13616;DHT22;6879;51.368;6.782;2023-02-28T12:11:44;12.10;59.30
13616;DHT22;6879;51.368;6.782;2023-02-28T12:17:33;11.90;58.50
13616;DHT22;6879;51.368;6.782;2023-02-28T12:20:12;11.80;58.70
13616;DHT22;6879;51.368;6.782;2023-02-28T12:22:52;12.20;58.70
13616;DHT22;6879;51.368;6.782;2023-02-28T12:25:43;11.70;58.40
13616;DHT22;6879;51.368;6.782;2023-02-28T12:28:20;11.30;59.10
13616;DHT22;6879;51.368;6.782;2023-02-28T12:30:56;11.80;59.30
13616;DHT22;6879;51.368;6.782;2023-02-28T12:33:40;11.80;58.40
13616;DHT22;6879;51.368;6.782;2023-02-28T12:36:20;11.50;58.80
13616;DHT22;6879;51.368;6.782;2023-02-28T12:39:00;12.20;58.50
13616;DHT22;6879;51.368;6.782;2023-02-28T12:41:33;12.30;57.80
13616;DHT22;6879;51.368;6.782;2023-02-28T12:44:10;12.50;57.60
13616;DHT22;6879;51.368;6.782;2023-02-28T12:46:43;12.90;57.10
13616;DHT22;6879;51.368;6.782;2023-02-28T12:49:17;13.50;56.30
13616;DHT22;6879;51.368;6.782;2023-02-28T12:51:47;12.90;56.70
13616;DHT22;6879;51.368;6.782;2023-02-28T12:54:23;13.90;56.60
13616;DHT22;6879;51.368;6.782;2023-02-28T12:57:00;13.50;55.40
13616;DHT22;6879;51.368;6.782;2023-02-28T12:59:37;13.20;55.50
13616;DHT22;6879;51.368;6.782;2023-02-28T13:02:29;12.40;56.80
13616;DHT22;6879;51.368;6.782;2023-02-28T13:05:25;12.00;57.80
13616;DHT22;6879;51.368;6.782;2023-02-28T13:08:09;12.50;57.40
13616;DHT22;6879;51.368;6.782;2023-02-28T13:10:45;12.40;56.60
13616;DHT22;6879;51.368;6.782;2023-02-28T13:13:16;12.70;57.10
13616;DHT22;6879;51.368;6.782;2023-02-28T13:16:02;13.20;57.00
13616;DHT22;6879;51.368;6.782;2023-02-28T13:18:36;13.40;56.10
13616;DHT22;6879;51.368;6.782;2023-02-28T13:29:28;13.20;56.70
13616;DHT22;6879;51.368;6.782;2023-02-28T13:33:17;12.90;56.90
13616;DHT22;6879;51.368;6.782;2023-02-28T14:06:25;14.10;56.20
13616;DHT22;6879;51.368;6.782;2023-02-28T14:09:30;14.70;55.50
13616;DHT22;6879;51.368;6.782;2023-02-28T14:26:53;15.40;53.00
13616;DHT22;6879;51.368;6.782;2023-02-28T14:32:59;14.40;54.50
13616;DHT22;6879;51.368;6.782;2023-02-28T14:35:50;12.80;55.50
13616;DHT22;6879;51.368;6.782;2023-02-28T14:39:35;12.50;57.40
13616;DHT22;6879;51.368;6.782;2023-02-28T14:46:12;13.50;55.80
13616;DHT22;6879;51.368;6.782;2023-02-28T14:48:55;13.20;56.80
13616;DHT22;6879;51.368;6.782;2023-02-28T14:59:58;14.30;56.30
13616;DHT22;6879;51.368;6.782;2023-02-28T15:06:22;13.40;57.80
13616;DHT22;6879;51.368;6.782;2023-02-28T15:15:17;12.80;58.70
13616;DHT22;6879;51.368;6.782;2023-02-28T15:18:03;12.50;59.40
13616;DHT22;6879;51.368;6.782;2023-02-28T15:20:35;12.80;60.40
13616;DHT22;6879;51.368;6.782;2023-02-28T15:23:06;13.00;59.60
13616;DHT22;6879;51.368;6.782;2023-02-28T15:25:35;13.40;58.50
13616;DHT22;6879;51.368;6.782;2023-02-28T15:28:05;12.20;59.10
13616;DHT22;6879;51.368;6.782;2023-02-28T15:30:34;12.10;60.30
13616;DHT22;6879;51.368;6.782;2023-02-28T15:33:06;12.80;59.60
13616;DHT22;6879;51.368;6.782;2023-02-28T15:35:38;13.10;59.10
13616;DHT22;6879;51.368;6.782;2023-02-28T15:38:17;12.90;60.90
13616;DHT22;6879;51.368;6.782;2023-02-28T15:40:50;13.20;59.60
13616;DHT22;6879;51.368;6.782;2023-02-28T15:43:26;13.40;60.40
13616;DHT22;6879;51.368;6.782;2023-02-28T15:45:58;14.00;59.10
13616;DHT22;6879;51.368;6.782;2023-02-28T15:48:30;13.80;58.70
13616;DHT22;6879;51.368;6.782;2023-02-28T15:51:05;13.70;58.70
13616;DHT22;6879;51.368;6.782;2023-02-28T15:53:39;13.50;59.20
13616;DHT22;6879;51.368;6.782;2023-02-28T16:07:00;9.10;65.10
13616;DHT22;6879;51.368;6.782;2023-02-28T16:16:17;7.10;70.40
13616;DHT22;6879;51.368;6.782;2023-02-28T16:18:47;6.90;71.60
13616;DHT22;6879;51.368;6.782;2023-02-28T16:21:17;6.90;72.20
13616;DHT22;6879;51.368;6.782;2023-02-28T16:23:46;6.80;72.70
13616;DHT22;6879;51.368;6.782;2023-02-28T16:26:21;6.80;72.70
13616;DHT22;6879;51.368;6.782;2023-02-28T16:28:51;6.60;72.90
13616;DHT22;6879;51.368;6.782;2023-02-28T16:31:22;6.50;73.10
13616;DHT22;6879;51.368;6.782;2023-02-28T16:33:51;6.30;73.40
13616;DHT22;6879;51.368;6.782;2023-02-28T16:36:23;6.10;74.10
13616;DHT22;6879;51.368;6.782;2023-02-28T16:38:54;6.00;74.80
13616;DHT22;6879;51.368;6.782;2023-02-28T16:41:25;5.90;75.30
13616;DHT22;6879;51.368;6.782;2023-02-28T16:43:57;5.90;75.90
13616;DHT22;6879;51.368;6.782;2023-02-28T16:46:33;5.70;76.30
13616;DHT22;6879;51.368;6.782;2023-02-28T16:49:10;5.60;77.00
13616;DHT22;6879;51.368;6.782;2023-02-28T16:51:39;5.50;77.40
13616;DHT22;6879;51.368;6.782;2023-02-28T16:54:09;5.40;77.60
13616;DHT22;6879;51.368;6.782;2023-02-28T16:56:39;5.30;77.80
13616;DHT22;6879;51.368;6.782;2023-02-28T16:59:11;5.10;78.20
13616;DHT22;6879;51.368;6.782;2023-02-28T17:01:42;5.00;78.40
13616;DHT22;6879;51.368;6.782;2023-02-28T17:04:11;5.00;78.80
13616;DHT22;6879;51.368;6.782;2023-02-28T17:06:41;4.80;79.30
13616;DHT22;6879;51.368;6.782;2023-02-28T17:09:15;4.70;79.80
13616;DHT22;6879;51.368;6.782;2023-02-28T17:11:45;4.70;79.90
13616;DHT22;6879;51.368;6.782;2023-02-28T17:14:14;4.50;80.10
13616;DHT22;6879;51.368;6.782;2023-02-28T17:16:44;4.40;80.40
13616;DHT22;6879;51.368;6.782;2023-02-28T17:19:15;4.40;80.70
13616;DHT22;6879;51.368;6.782;2023-02-28T17:21:45;4.30;80.70
13616;DHT22;6879;51.368;6.782;2023-02-28T17:24:14;4.30;80.60
13616;DHT22;6879;51.368;6.782;2023-02-28T17:26:56;4.20;80.60
13616;DHT22;6879;51.368;6.782;2023-02-28T17:29:26;4.20;80.70
13616;DHT22;6879;51.368;6.782;2023-02-28T17:31:57;4.10;80.90
13616;DHT22;6879;51.368;6.782;2023-02-28T17:34:34;4.10;80.90
13616;DHT22;6879;51.368;6.782;2023-02-28T17:37:05;4.10;81.00
13616;DHT22;6879;51.368;6.782;2023-02-28T17:39:33;3.90;81.30
13616;DHT22;6879;51.368;6.782;2023-02-28T17:42:03;3.90;81.80
13616;DHT22;6879;51.368;6.782;2023-02-28T17:44:32;3.80;81.70
13616;DHT22;6879;51.368;6.782;2023-02-28T17:47:03;3.80;81.90
13616;DHT22;6879;51.368;6.782;2023-02-28T17:49:32;3.70;81.90
13616;DHT22;6879;51.368;6.782;2023-02-28T17:52:01;3.60;82.20
13616;DHT22;6879;51.368;6.782;2023-02-28T17:54:36;3.50;82.70
13616;DHT22;6879;51.368;6.782;2023-02-28T17:57:05;3.50;82.90
13616;DHT22;6879;51.368;6.782;2023-02-28T17:59:34;3.40;83.00
13616;DHT22;6879;51.368;6.782;2023-02-28T18:02:05;3.30;83.20
13616;DHT22;6879;51.368;6.782;2023-02-28T18:04:34;3.00;83.90
13616;DHT22;6879;51.368;6.782;2023-02-28T18:07:03;2.90;84.40
13616;DHT22;6879;51.368;6.782;2023-02-28T18:09:34;2.70;84.90
13616;DHT22;6879;51.368;6.782;2023-02-28T18:12:04;2.80;84.90
13616;DHT22;6879;51.368;6.782;2023-02-28T18:14:33;2.80;84.80
13616;DHT22;6879;51.368;6.782;2023-02-28T18:17:02;2.70;85.00
13616;DHT22;6879;51.368;6.782;2023-02-28T18:19:32;2.40;85.70
13616;DHT22;6879;51.368;6.782;2023-02-28T18:22:02;2.10;86.50
13616;DHT22;6879;51.368;6.782;2023-02-28T18:24:30;1.80;87.50
13616;DHT22;6879;51.368;6.782;2023-02-28T18:26:59;1.70;88.20
13616;DHT22;6879;51.368;6.782;2023-02-28T18:29:29;1.50;88.80